Time;durP1;ratioP1;P1;durP2;ratioP2;P2;SDS_P1;SDS_P2;PMS_P1;PMS_P2;Temp;Humidity;BMP_temperature;BMP_pressure;BME280_temperature;BME280_humidity;BME280_pressure;Samples;Min_cycle;Max_cycle;Signal;HPM_P1;HPM_P2
2023/06/16 00:02:24;;;;;;;9.00;5.87;;;17.80;65.10;;;;;;5044431;28;20566;-72
2023/06/16 00:04:49;;;;;;;9.40;6.03;;;17.90;65.30;;;;;;5048382;28;20190;-71
2023/06/16 00:07:19;;;;;;;9.40;6.10;;;17.80;65.30;;;;;;5052805;28;20182;-73
2023/06/16 00:09:49;;;;;;;10.27;6.13;;;17.70;65.60;;;;;;5035370;28;20216;-72
2023/06/16 00:12:15;;;;;;;7.87;5.90;;;17.60;65.80;;;;;;5045015;28;20465;-71
2023/06/16 00:14:40;;;;;;;10.17;6.37;;;17.60;66.10;;;;;;5047394;28;20945;-72
2023/06/16 00:17:06;;;;;;;9.87;5.87;;;17.50;66.10;;;;;;5042935;28;20189;-72
2023/06/16 00:19:32;;;;;;;10.17;6.77;;;17.40;66.40;;;;;;5045241;28;20655;-71
2023/06/16 00:21:59;;;;;;;11.83;5.97;;;17.40;66.40;;;;;;5032614;28;20189;-73
2023/06/16 00:24:26;;;;;;;13.60;6.57;;;17.40;66.60;;;;;;5031328;28;20433;-74
2023/06/16 00:26:53;;;;;;;10.90;5.93;;;17.50;66.30;;;;;;5045509;28;20421;-72
2023/06/16 00:29:19;;;;;;;11.40;7.30;;;17.50;66.30;;;;;;5049291;28;20423;-71
2023/06/16 00:31:45;;;;;;;7.87;6.20;;;17.40;66.40;;;;;;5042714;28;20423;-72
2023/06/16 00:34:10;;;;;;;7.77;5.23;;;17.40;67.00;;;;;;5049796;28;20196;-70
2023/06/16 00:36:36;;;;;;;9.60;6.07;;;17.40;66.90;;;;;;5040887;28;20417;-71
2023/06/16 00:39:02;;;;;;;8.80;6.07;;;17.40;66.90;;;;;;5048638;28;20269;-72
2023/06/16 00:41:27;;;;;;;8.00;6.30;;;17.50;66.40;;;;;;5044072;28;20181;-72
2023/06/16 00:43:53;;;;;;;8.70;6.73;;;17.50;66.40;;;;;;5043996;28;20264;-73
2023/06/16 00:46:31;;;;;;;7.57;6.10;;;17.50;66.40;;;;;;5042350;28;20197;-71
2023/06/16 00:48:58;;;;;;;9.13;6.13;;;17.50;66.30;;;;;;5044557;28;20421;-72
2023/06/16 00:51:26;;;;;;;9.40;6.00;;;17.50;66.30;;;;;;5043939;28;20495;-72
2023/06/16 00:53:54;;;;;;;8.90;6.33;;;17.50;66.40;;;;;;5042970;28;20448;-72
2023/06/16 00:56:21;;;;;;;9.93;7.00;;;17.40;66.90;;;;;;5051841;28;20766;-72
2023/06/16 00:58:52;;;;;;;9.30;6.27;;;17.30;67.00;;;;;;5046355;28;20499;-71
2023/06/16 01:01:17;;;;;;;11.00;6.70;;;17.30;67.30;;;;;;5054207;28;20424;-71
2023/06/16 01:03:44;;;;;;;8.37;6.20;;;17.30;67.20;;;;;;5048052;28;20472;-72
2023/06/16 01:06:43;;;;;;;8.50;5.97;;;17.20;67.20;;;;;;5049391;28;20516;-71
2023/06/16 01:09:40;;;;;;;10.10;6.30;;;17.20;67.50;;;;;;5009160;28;20430;-74
2023/06/16 01:12:30;;;;;;;10.60;6.00;;;17.10;67.50;;;;;;5050525;28;20425;-73
2023/06/16 01:15:06;;;;;;;8.70;6.60;;;17.00;67.70;;;;;;5037548;28;21022;-73
2023/06/16 01:17:43;;;;;;;7.93;5.63;;;16.90;68.00;;;;;;5047526;28;20426;-73
2023/06/16 01:20:28;;;;;;;8.73;6.17;;;16.90;68.30;;;;;;5054259;28;20433;-74
2023/06/16 01:23:09;;;;;;;11.00;7.27;;;16.80;68.60;;;;;;5048623;28;20462;-73
2023/06/16 01:25:38;;;;;;;9.50;6.37;;;16.80;68.60;;;;;;5043559;28;20438;-72
2023/06/16 01:28:05;;;;;;;8.73;6.60;;;16.80;68.90;;;;;;5044057;28;20933;-73
2023/06/16 01:30:32;;;;;;;10.63;6.80;;;16.70;68.90;;;;;;5029450;28;20474;-73
2023/06/16 01:32:59;;;;;;;8.20;5.40;;;16.70;69.10;;;;;;5048299;28;20507;-73
2023/06/16 01:35:27;;;;;;;10.07;5.50;;;16.70;68.90;;;;;;5045886;28;20427;-73
2023/06/16 01:37:55;;;;;;;11.13;6.00;;;16.60;69.20;;;;;;5047333;28;20423;-73
2023/06/16 01:40:21;;;;;;;13.70;6.70;;;16.50;69.40;;;;;;5051488;28;20796;-73
2023/06/16 01:42:51;;;;;;;8.70;5.90;;;16.50;69.40;;;;;;5047756;28;21012;-74
2023/06/16 01:45:18;;;;;;;8.17;5.63;;;16.50;69.40;;;;;;5044663;28;20475;-73
2023/06/16 01:47:45;;;;;;;13.30;6.53;;;16.50;69.20;;;;;;5045864;28;20431;-73
2023/06/16 01:50:14;;;;;;;11.67;5.87;;;16.50;69.10;;;;;;5047353;28;20466;-73
2023/06/16 01:52:39;;;;;;;8.57;6.10;;;16.60;68.60;;;;;;5047009;28;20552;-72
2023/06/16 01:55:06;;;;;;;10.57;6.70;;;16.70;68.80;;;;;;5027123;28;20514;-75
2023/06/16 01:57:31;;;;;;;9.00;6.33;;;16.80;68.60;;;;;;5051119;28;20207;-73
2023/06/16 02:00:07;;;;;;;7.23;5.63;;;16.70;68.30;;;;;;5052108;28;20423;-74
2023/06/16 02:02:33;;;;;;;9.97;5.93;;;16.70;68.60;;;;;;5047241;28;20693;-73
2023/06/16 02:05:03;;;;;;;10.50;6.37;;;16.60;69.10;;;;;;5043550;28;20461;-72
2023/06/16 02:07:34;;;;;;;8.07;5.77;;;16.50;69.40;;;;;;5041789;28;20764;-73
2023/06/16 02:10:03;;;;;;;10.87;6.40;;;16.40;69.50;;;;;;5049900;28;20470;-73
2023/06/16 02:12:30;;;;;;;11.60;6.33;;;16.20;69.90;;;;;;5048070;28;20474;-72
2023/06/16 02:14:56;;;;;;;12.43;6.80;;;16.10;70.20;;;;;;5040641;28;20424;-72
2023/06/16 02:17:26;;;;;;;8.77;6.43;;;16.00;70.40;;;;;;5047234;28;20419;-72
2023/06/16 02:19:54;;;;;;;7.43;6.00;;;16.00;70.40;;;;;;5046955;28;20191;-73
2023/06/16 02:22:19;;;;;;;11.83;6.10;;;16.00;70.50;;;;;;5048966;28;20497;-73
2023/06/16 02:24:47;;;;;;;9.73;6.20;;;16.00;70.50;;;;;;5046922;28;20955;-72
2023/06/16 02:27:13;;;;;;;9.60;6.07;;;16.10;70.20;;;;;;5049505;28;20237;-74
2023/06/16 02:29:42;;;;;;;10.47;6.53;;;16.20;69.80;;;;;;5030922;28;20853;-72
2023/06/16 02:32:08;;;;;;;8.83;6.03;;;16.20;69.50;;;;;;5035100;28;20430;-72
2023/06/16 02:34:33;;;;;;;10.27;5.67;;;16.30;69.50;;;;;;5046197;28;20430;-72
2023/06/16 02:37:00;;;;;;;13.80;7.20;;;16.30;69.40;;;;;;5045164;28;20192;-72
2023/06/16 02:39:26;;;;;;;8.70;5.70;;;16.40;69.10;;;;;;5053863;28;20333;-73
2023/06/16 02:41:52;;;;;;;13.30;6.37;;;16.50;68.80;;;;;;5053037;28;20435;-73
2023/06/16 02:44:17;;;;;;;8.43;5.60;;;16.50;68.60;;;;;;5052445;28;20241;-72
2023/06/16 02:46:43;;;;;;;10.90;5.87;;;16.60;68.50;;;;;;5041553;28;20189;-73
2023/06/16 02:49:09;;;;;;;9.10;5.63;;;16.60;68.50;;;;;;5049959;28;20742;-73
2023/06/16 02:51:34;;;;;;;12.77;6.33;;;16.60;68.30;;;;;;5027669;28;20190;-72
2023/06/16 02:54:00;;;;;;;9.60;6.03;;;16.60;68.30;;;;;;5048797;28;20687;-72
2023/06/16 02:56:28;;;;;;;10.90;6.63;;;16.60;68.20;;;;;;5040790;28;20553;-73
2023/06/16 02:58:54;;;;;;;8.47;5.20;;;16.60;68.50;;;;;;5044937;28;20423;-73
2023/06/16 03:01:21;;;;;;;11.33;6.30;;;16.60;68.60;;;;;;5042467;28;20469;-73
2023/06/16 03:03:48;;;;;;;11.23;5.97;;;16.50;68.80;;;;;;5033134;28;20469;-73
2023/06/16 03:06:14;;;;;;;8.77;6.30;;;16.60;68.80;;;;;;5049155;28;20432;-72
2023/06/16 03:08:39;;;;;;;11.33;6.33;;;16.60;68.60;;;;;;5054813;28;20449;-72
2023/06/16 03:11:05;;;;;;;8.30;6.00;;;16.60;68.80;;;;;;5046826;28;20965;-73
2023/06/16 03:13:31;;;;;;;8.47;5.90;;;16.60;68.80;;;;;;5049959;28;20696;-72
2023/06/16 03:15:56;;;;;;;8.63;5.90;;;16.60;68.60;;;;;;5043086;28;20231;-72
2023/06/16 03:18:22;;;;;;;13.57;7.40;;;16.60;68.90;;;;;;5049707;28;20184;-72
2023/06/16 03:20:47;;;;;;;9.53;6.50;;;16.40;69.20;;;;;;5054058;28;20249;-72
2023/06/16 03:23:13;;;;;;;11.70;6.60;;;16.30;69.90;;;;;;5049169;28;20228;-72
2023/06/16 03:25:38;;;;;;;11.10;6.70;;;16.20;70.10;;;;;;5053065;28;20548;-72
2023/06/16 03:28:06;;;;;;;11.03;6.00;;;16.10;70.20;;;;;;5051399;28;20188;-73
2023/06/16 03:30:33;;;;;;;9.00;5.90;;;16.00;70.50;;;;;;5046098;28;20285;-72
2023/06/16 03:32:58;;;;;;;12.27;6.53;;;15.90;70.80;;;;;;5050553;28;20485;-72
2023/06/16 03:35:24;;;;;;;9.40;6.50;;;15.80;70.80;;;;;;5054011;28;20510;-72
2023/06/16 03:37:49;;;;;;;10.20;6.07;;;15.80;71.00;;;;;;5052932;28;20189;-72
2023/06/16 03:40:17;;;;;;;7.97;5.73;;;15.80;71.00;;;;;;5056560;28;20660;-72
2023/06/16 03:42:42;;;;;;;12.00;6.73;;;15.80;70.70;;;;;;5054005;28;20203;-73
2023/06/16 03:45:09;;;;;;;9.60;6.30;;;15.80;70.50;;;;;;5048066;28;20977;-72
2023/06/16 03:47:34;;;;;;;10.33;6.63;;;15.90;70.50;;;;;;5051537;28;20265;-71
2023/06/16 03:50:00;;;;;;;11.93;7.80;;;15.90;70.50;;;;;;5053105;28;20503;-71
2023/06/16 03:52:26;;;;;;;11.90;6.70;;;15.90;70.70;;;;;;5037326;28;20292;-72
2023/06/16 03:54:51;;;;;;;9.80;7.00;;;15.80;71.00;;;;;;5050127;28;20181;-72
2023/06/16 03:57:17;;;;;;;11.90;7.20;;;15.90;70.80;;;;;;5046358;28;20179;-71
2023/06/16 03:59:43;;;;;;;14.20;6.30;;;15.80;71.10;;;;;;5050905;28;20317;-72
2023/06/16 04:02:08;;;;;;;9.13;6.27;;;15.70;71.10;;;;;;5043191;28;20189;-71
2023/06/16 04:04:35;;;;;;;9.83;6.53;;;15.40;71.60;;;;;;5034439;28;20274;-71
2023/06/16 04:07:01;;;;;;;13.40;6.73;;;15.30;71.70;;;;;;5045942;28;20288;-72
2023/06/16 04:09:27;;;;;;;10.17;7.33;;;15.30;71.70;;;;;;5048213;28;20438;-72
2023/06/16 04:11:53;;;;;;;12.80;6.23;;;15.40;71.60;;;;;;5042431;28;20439;-72
2023/06/16 04:14:18;;;;;;;12.93;6.70;;;15.40;71.70;;;;;;5045506;28;20662;-71
2023/06/16 04:16:44;;;;;;;11.23;6.83;;;15.60;71.60;;;;;;5045120;28;20184;-71
2023/06/16 04:19:10;;;;;;;8.47;6.67;;;15.70;70.80;;;;;;5051685;28;20273;-71
2023/06/16 04:21:36;;;;;;;10.37;6.70;;;15.60;71.00;;;;;;5049053;28;20180;-72
2023/06/16 04:24:02;;;;;;;9.10;6.10;;;15.70;71.00;;;;;;5027535;28;20546;-71
2023/06/16 04:26:29;;;;;;;8.80;6.43;;;15.80;70.70;;;;;;5052209;28;20264;-72
2023/06/16 04:28:55;;;;;;;10.93;6.90;;;15.90;70.80;;;;;;5053395;28;20422;-71
2023/06/16 04:31:22;;;;;;;10.10;6.20;;;15.80;71.00;;;;;;5046220;28;20954;-71
2023/06/16 04:33:48;;;;;;;10.10;6.67;;;15.80;71.10;;;;;;5049742;28;20459;-72
2023/06/16 04:36:14;;;;;;;14.00;6.70;;;15.90;71.10;;;;;;5044342;28;20421;-72
2023/06/16 04:38:40;;;;;;;12.23;6.53;;;15.90;71.10;;;;;;5041158;28;20581;-72
2023/06/16 04:41:06;;;;;;;12.17;6.73;;;15.80;71.30;;;;;;5051420;28;20499;-71
2023/06/16 04:43:31;;;;;;;10.43;6.70;;;16.00;70.80;;;;;;5028952;28;20997;-72
2023/06/16 04:46:00;;;;;;;11.23;6.50;;;16.10;70.70;;;;;;5046447;28;20641;-73
2023/06/16 04:48:26;;;;;;;10.60;6.97;;;16.00;70.70;;;;;;5053931;28;20188;-73
2023/06/16 04:50:57;;;;;;;10.37;6.40;;;16.10;70.50;;;;;;5053458;28;21053;-71
2023/06/16 04:53:22;;;;;;;10.30;6.43;;;16.10;70.50;;;;;;5044037;28;20544;-71
2023/06/16 04:55:48;;;;;;;9.57;6.40;;;16.20;69.80;;;;;;5049727;28;20430;-72
2023/06/16 04:58:14;;;;;;;10.20;6.47;;;16.30;69.50;;;;;;5046576;28;20416;-71
2023/06/16 05:00:40;;;;;;;10.77;6.87;;;16.30;69.70;;;;;;5048958;28;20188;-72
2023/06/16 05:03:05;;;;;;;10.87;6.70;;;16.40;69.50;;;;;;5052160;28;20666;-71
2023/06/16 05:05:32;;;;;;;10.20;6.03;;;16.50;69.50;;;;;;5048028;28;20255;-70
2023/06/16 05:07:58;;;;;;;17.10;7.10;;;16.60;69.50;;;;;;5047918;28;20194;-72
2023/06/16 05:10:23;;;;;;;11.90;6.97;;;16.80;68.60;;;;;;5051303;28;20458;-71
2023/06/16 05:12:49;;;;;;;9.93;6.67;;;16.80;68.20;;;;;;5048847;28;20523;-71
2023/06/16 05:15:15;;;;;;;9.93;6.40;;;17.00;68.20;;;;;;5049506;28;20655;-71
2023/06/16 05:17:40;;;;;;;9.13;6.13;;;17.10;68.00;;;;;;5037413;28;20188;-72
2023/06/16 05:20:06;;;;;;;11.00;6.90;;;17.00;68.00;;;;;;5053055;28;20272;-72
2023/06/16 05:22:32;;;;;;;9.27;5.90;;;17.00;68.20;;;;;;5049626;28;20299;-71
2023/06/16 05:24:58;;;;;;;12.20;7.80;;;16.90;68.60;;;;;;5049883;28;20739;-72
2023/06/16 05:27:24;;;;;;;13.40;7.10;;;17.00;69.10;;;;;;5046197;28;20416;-72
2023/06/16 05:29:51;;;;;;;11.17;6.93;;;17.00;68.90;;;;;;5056588;28;20208;-71
2023/06/16 05:32:19;;;;;;;12.83;6.83;;;17.10;68.80;;;;;;5043657;28;20434;-72
2023/06/16 05:34:49;;;;;;;11.53;6.80;;;17.20;68.90;;;;;;5050153;28;20411;-72
2023/06/16 05:37:15;;;;;;;12.97;7.93;;;17.40;68.00;;;;;;5052189;28;20422;-71
2023/06/16 05:39:44;;;;;;;10.97;7.20;;;17.50;67.70;;;;;;5046725;28;20426;-72
2023/06/16 05:42:11;;;;;;;11.80;6.80;;;17.70;67.50;;;;;;5054567;28;20172;-72
2023/06/16 05:44:37;;;;;;;10.17;6.47;;;17.80;66.90;;;;;;5051082;28;20957;-72
2023/06/16 05:47:03;;;;;;;11.07;7.10;;;17.90;66.70;;;;;;5057683;28;20423;-71
2023/06/16 05:49:28;;;;;;;9.33;6.27;;;18.00;66.10;;;;;;5060723;28;20187;-73
2023/06/16 05:51:56;;;;;;;12.37;7.60;;;18.00;65.80;;;;;;5057122;28;20443;-71
2023/06/16 05:54:22;;;;;;;8.80;6.10;;;18.00;65.40;;;;;;5047300;28;20184;-72
2023/06/16 05:56:48;;;;;;;8.03;5.53;;;18.00;65.60;;;;;;5047016;28;20425;-72
2023/06/16 05:59:13;;;;;;;8.40;5.67;;;18.20;65.30;;;;;;5043834;28;20252;-71
2023/06/16 06:01:39;;;;;;;11.60;6.40;;;18.20;65.00;;;;;;5052151;28;20189;-71
2023/06/16 06:04:05;;;;;;;10.03;6.40;;;18.30;64.80;;;;;;5054269;28;20208;-72
2023/06/16 06:06:30;;;;;;;15.90;8.10;;;18.30;64.50;;;;;;5051326;28;20187;-71
2023/06/16 06:08:56;;;;;;;16.77;8.60;;;18.30;64.80;;;;;;5038184;28;20288;-72
2023/06/16 06:11:22;;;;;;;13.30;6.60;;;18.40;65.00;;;;;;5054555;28;20207;-71
2023/06/16 06:13:47;;;;;;;12.20;7.40;;;18.50;64.70;;;;;;5046490;28;20355;-71
2023/06/16 06:16:13;;;;;;;11.73;7.50;;;18.60;64.70;;;;;;5050666;28;20178;-72
2023/06/16 06:18:39;;;;;;;9.27;7.10;;;18.60;64.40;;;;;;5043678;28;20192;-72
2023/06/16 06:21:04;;;;;;;9.00;6.90;;;18.80;64.20;;;;;;5052000;28;20615;-71
2023/06/16 06:23:30;;;;;;;9.63;6.60;;;19.00;62.90;;;;;;5048439;28;20208;-71
2023/06/16 06:25:56;;;;;;;8.90;6.30;;;19.10;62.60;;;;;;5046887;28;20246;-72
2023/06/16 06:28:23;;;;;;;10.60;6.33;;;19.20;62.30;;;;;;5051185;28;20184;-71
2023/06/16 06:30:48;;;;;;;8.70;6.33;;;19.20;62.30;;;;;;5048319;28;20880;-71
2023/06/16 06:33:14;;;;;;;14.30;7.60;;;19.20;62.30;;;;;;5037301;28;20459;-71
2023/06/16 06:35:40;;;;;;;15.73;7.50;;;19.20;61.70;;;;;;5049535;28;20199;-71
2023/06/16 06:38:06;;;;;;;13.10;6.60;;;19.10;62.30;;;;;;5044105;28;20226;-72
2023/06/16 06:40:32;;;;;;;11.67;6.43;;;19.20;61.90;;;;;;5044674;28;20219;-71
2023/06/16 06:42:57;;;;;;;11.93;7.10;;;19.40;62.00;;;;;;5046075;28;20231;-71
2023/06/16 06:45:23;;;;;;;10.97;7.13;;;19.60;60.90;;;;;;5041993;28;20193;-71
2023/06/16 06:47:48;;;;;;;17.50;7.13;;;19.70;60.60;;;;;;5047078;28;20200;-72
2023/06/16 06:50:14;;;;;;;13.30;7.10;;;19.70;60.30;;;;;;5048212;28;20215;-71
2023/06/16 06:52:40;;;;;;;12.00;6.60;;;19.90;60.00;;;;;;5047404;28;20236;-72
2023/06/16 06:55:06;;;;;;;11.07;6.93;;;20.00;59.60;;;;;;5047501;28;20231;-72
2023/06/16 06:57:32;;;;;;;13.17;7.33;;;20.10;58.90;;;;;;5047903;28;20182;-71
2023/06/16 06:59:57;;;;;;;12.70;7.53;;;20.20;58.70;;;;;;5053589;28;20779;-71
2023/06/16 07:02:23;;;;;;;12.93;7.10;;;20.10;58.10;;;;;;5045134;28;20281;-70
2023/06/16 07:04:49;;;;;;;14.13;7.80;;;20.10;58.70;;;;;;5047262;28;20189;-74
2023/06/16 07:07:15;;;;;;;11.47;7.10;;;20.20;58.10;;;;;;5043870;28;20421;-72
2023/06/16 07:09:40;;;;;;;10.83;7.23;;;20.30;57.80;;;;;;5046146;28;20467;-72
2023/06/16 07:12:07;;;;;;;11.13;7.03;;;20.50;57.70;;;;;;5045213;28;20536;-71
2023/06/16 07:14:34;;;;;;;14.00;7.27;;;20.50;57.80;;;;;;5043204;28;20179;-73
2023/06/16 07:17:01;;;;;;;17.83;8.00;;;20.60;57.40;;;;;;5043987;28;20422;-73
2023/06/16 07:19:27;;;;;;;11.43;7.40;;;20.70;56.60;;;;;;5036355;28;20509;-73
2023/06/16 07:21:53;;;;;;;9.17;6.57;;;20.80;57.00;;;;;;5045434;28;20844;-73
2023/06/16 07:24:20;;;;;;;16.40;7.17;;;20.90;57.00;;;;;;5046610;28;20221;-72
2023/06/16 07:26:46;;;;;;;15.07;6.63;;;21.00;56.60;;;;;;5046916;28;20951;-74
2023/06/16 07:29:11;;;;;;;15.40;8.03;;;21.10;56.60;;;;;;5044412;28;20422;-72
2023/06/16 07:31:37;;;;;;;13.57;8.40;;;21.00;56.80;;;;;;5046713;28;20210;-73
2023/06/16 07:34:03;;;;;;;12.23;7.90;;;20.80;57.60;;;;;;5046184;28;20209;-73
2023/06/16 07:36:30;;;;;;;10.83;7.90;;;20.60;58.00;;;;;;5043683;28;20283;-73
2023/06/16 07:38:55;;;;;;;14.30;7.90;;;20.60;58.00;;;;;;5042779;28;20181;-73
2023/06/16 07:41:21;;;;;;;14.00;7.57;;;20.70;58.00;;;;;;5049466;28;20432;-74
2023/06/16 07:43:48;;;;;;;10.20;7.40;;;20.90;57.80;;;;;;5045936;28;20210;-72
2023/06/16 07:46:14;;;;;;;14.50;6.90;;;21.00;57.20;;;;;;5044979;28;20206;-73
2023/06/16 07:48:39;;;;;;;16.23;7.10;;;21.10;56.90;;;;;;5050850;28;20923;-74
2023/06/16 07:51:06;;;;;;;9.07;6.90;;;21.20;56.90;;;;;;5048048;28;21015;-72
2023/06/16 07:53:31;;;;;;;9.40;6.80;;;21.30;54.80;;;;;;5048843;28;20203;-72
2023/06/16 07:55:57;;;;;;;13.00;7.13;;;21.30;54.50;;;;;;5032499;28;20425;-70
2023/06/16 07:58:23;;;;;;;11.13;6.73;;;21.40;53.80;;;;;;5029009;28;20180;-72
2023/06/16 08:00:51;;;;;;;11.40;6.43;;;21.50;54.10;;;;;;5046300;28;20187;-71
2023/06/16 08:03:18;;;;;;;10.10;5.97;;;21.50;52.50;;;;;;5051181;28;20261;-73
2023/06/16 08:05:43;;;;;;;8.90;5.37;;;21.60;52.80;;;;;;5044889;28;20424;-72
2023/06/16 08:08:09;;;;;;;9.20;6.50;;;21.70;52.80;;;;;;5028736;28;20505;-72
2023/06/16 08:10:35;;;;;;;11.83;6.27;;;21.90;52.00;;;;;;5041804;28;20203;-73
2023/06/16 08:13:00;;;;;;;14.83;7.30;;;22.10;50.20;;;;;;5046696;28;20637;-73
2023/06/16 08:15:26;;;;;;;9.33;6.17;;;22.20;49.90;;;;;;5041836;28;20185;-73
2023/06/16 08:17:51;;;;;;;12.90;7.27;;;22.30;50.30;;;;;;5029622;28;20688;-73
2023/06/16 08:20:17;;;;;;;10.07;6.93;;;22.40;51.20;;;;;;5049489;28;20189;-73
2023/06/16 08:22:43;;;;;;;10.57;5.90;;;22.50;50.60;;;;;;5046068;28;20287;-73
2023/06/16 08:25:08;;;;;;;8.43;5.37;;;22.50;45.90;;;;;;5045703;28;20328;-71
2023/06/16 08:27:34;;;;;;;7.73;4.70;;;22.40;45.30;;;;;;5048414;28;20185;-72
2023/06/16 08:30:00;;;;;;;15.60;5.70;;;22.50;45.10;;;;;;5044154;28;20211;-72
2023/06/16 08:32:26;;;;;;;10.77;4.73;;;22.60;45.80;;;;;;5033179;28;20270;-73
2023/06/16 08:34:51;;;;;;;10.60;5.73;;;22.70;45.70;;;;;;5045817;28;20455;-72
2023/06/16 08:37:17;;;;;;;14.70;6.07;;;22.60;45.40;;;;;;5032299;28;20182;-71
2023/06/16 08:39:43;;;;;;;9.23;5.40;;;22.50;43.40;;;;;;5043427;28;20197;-74
2023/06/16 08:42:13;;;;;;;9.20;5.80;;;22.40;44.10;;;;;;5048139;28;20426;-72
2023/06/16 08:44:39;;;;;;;9.90;5.00;;;22.50;41.90;;;;;;5040103;28;20210;-72
2023/06/16 08:47:05;;;;;;;5.90;4.50;;;22.70;41.60;;;;;;5047296;28;20428;-72
2023/06/16 08:49:31;;;;;;;11.13;5.97;;;22.80;39.90;;;;;;5040798;28;21128;-71
2023/06/16 08:52:01;;;;;;;8.80;5.20;;;22.70;40.20;;;;;;5048665;28;20608;-72
2023/06/16 08:54:32;;;;;;;9.47;5.10;;;22.90;38.30;;;;;;5025999;28;20440;-71
2023/06/16 08:57:01;;;;;;;7.97;4.70;;;23.00;39.40;;;;;;5041118;28;20510;-73
2023/06/16 08:59:30;;;;;;;9.83;5.13;;;23.00;39.50;;;;;;5049098;28;20432;-74
2023/06/16 09:01:59;;;;;;;9.77;4.80;;;23.10;39.40;;;;;;5049648;28;20590;-73
2023/06/16 09:04:24;;;;;;;9.40;4.80;;;22.90;37.40;;;;;;5048372;28;20434;-72
2023/06/16 09:06:56;;;;;;;9.27;4.90;;;22.90;38.60;;;;;;5032863;28;20520;-71
2023/06/16 09:09:23;;;;;;;7.03;4.63;;;22.90;38.70;;;;;;5052645;28;20484;-72
2023/06/16 09:12:08;;;;;;;10.77;5.00;;;23.00;39.00;;;;;;5036958;28;20490;-71
2023/06/16 09:14:37;;;;;;;14.60;5.63;;;23.30;38.60;;;;;;5048526;28;20864;-72
2023/06/16 09:17:05;;;;;;;6.67;4.90;;;23.30;37.60;;;;;;5043685;28;20489;-73
2023/06/16 09:19:46;;;;;;;9.90;4.73;;;23.10;37.50;;;;;;5049059;28;20430;-72
2023/06/16 09:22:18;;;;;;;9.20;5.00;;;22.70;38.60;;;;;;5044138;28;20424;-71
2023/06/16 09:24:45;;;;;;;7.43;5.30;;;22.80;38.70;;;;;;5045027;28;20898;-72
2023/06/16 09:27:12;;;;;;;10.10;5.00;;;22.90;38.70;;;;;;5046122;28;20421;-72
2023/06/16 09:29:38;;;;;;;12.27;5.47;;;22.80;38.70;;;;;;5045538;28;20461;-74
2023/06/16 09:32:08;;;;;;;8.10;5.20;;;22.90;38.70;;;;;;5045347;28;20426;-71
2023/06/16 09:34:35;;;;;;;11.70;5.07;;;22.90;38.40;;;;;;5048028;28;20235;-73
2023/06/16 09:37:04;;;;;;;11.40;5.10;;;23.00;38.30;;;;;;5042488;28;20413;-73
2023/06/16 09:39:30;;;;;;;8.20;4.80;;;23.20;37.90;;;;;;5047878;28;20478;-73
2023/06/16 09:41:56;;;;;;;9.07;4.80;;;23.40;37.20;;;;;;5051679;28;20426;-74
2023/06/16 09:44:23;;;;;;;8.67;4.80;;;23.60;37.50;;;;;;5047461;28;20313;-71
2023/06/16 09:46:52;;;;;;;11.27;5.80;;;23.70;37.50;;;;;;5048762;28;20847;-73
2023/06/16 09:49:24;;;;;;;7.60;4.83;;;23.70;37.50;;;;;;5038720;28;20411;-71
2023/06/16 09:51:55;;;;;;;11.57;5.33;;;23.70;37.60;;;;;;5028372;28;20478;-73
2023/06/16 09:54:22;;;;;;;14.70;5.53;;;23.70;37.60;;;;;;5045080;28;20426;-74
2023/06/16 09:56:48;;;;;;;9.30;4.97;;;23.90;36.70;;;;;;5050031;28;20484;-71
2023/06/16 09:59:15;;;;;;;8.43;5.00;;;23.70;36.60;;;;;;5045270;28;20857;-73
2023/06/16 10:01:43;;;;;;;6.83;4.70;;;23.40;37.80;;;;;;5033269;28;20453;-72
2023/06/16 10:04:10;;;;;;;9.03;5.77;;;23.60;37.20;;;;;;5042385;28;20456;-74
2023/06/16 10:06:55;;;;;;;10.47;4.87;;;23.50;37.40;;;;;;5031643;28;20428;-73
2023/06/16 10:09:27;;;;;;;8.10;4.90;;;23.60;37.20;;;;;;5045157;28;20406;-72
2023/06/16 10:11:56;;;;;;;6.70;5.17;;;24.00;35.30;;;;;;5044537;28;20434;-73
2023/06/16 10:14:26;;;;;;;9.80;5.93;;;23.90;35.20;;;;;;5048759;28;20960;-73
2023/06/16 10:16:54;;;;;;;7.93;5.33;;;24.10;35.90;;;;;;5043307;28;20419;-73
2023/06/16 10:19:22;;;;;;;12.33;5.57;;;24.10;35.90;;;;;;5046717;28;20404;-72
2023/06/16 10:21:51;;;;;;;6.90;5.40;;;24.00;35.10;;;;;;5044306;28;20452;-72
2023/06/16 10:24:17;;;;;;;9.30;5.20;;;24.00;36.20;;;;;;5050788;28;20447;-73
2023/06/16 10:26:43;;;;;;;7.43;5.30;;;24.10;35.50;;;;;;5046803;28;20895;-73
2023/06/16 10:29:16;;;;;;;8.80;5.00;;;23.90;35.90;;;;;;5051874;28;20453;-73
2023/06/16 10:31:43;;;;;;;10.93;5.70;;;23.80;36.80;;;;;;5050823;28;20471;-72
2023/06/16 10:34:20;;;;;;;19.03;5.77;;;23.90;36.30;;;;;;5047708;28;20557;-72
2023/06/16 10:36:48;;;;;;;8.03;5.40;;;23.70;35.70;;;;;;5029885;28;20432;-73
2023/06/16 10:39:15;;;;;;;7.03;5.00;;;24.00;35.90;;;;;;5045561;28;20408;-73
2023/06/16 10:41:59;;;;;;;8.43;5.33;;;24.30;36.30;;;;;;5033048;28;20491;-73
2023/06/16 10:44:25;;;;;;;8.13;5.47;;;24.60;36.60;;;;;;5044289;28;20436;-73
2023/06/16 10:47:09;;;;;;;16.53;6.10;;;24.50;34.70;;;;;;5042085;28;20754;-73
2023/06/16 10:49:51;;;;;;;9.40;5.90;;;25.10;33.30;;;;;;5047306;28;20491;-72
2023/06/16 10:52:17;;;;;;;10.00;5.33;;;25.10;32.30;;;;;;5043128;28;20496;-73
2023/06/16 10:54:45;;;;;;;7.27;5.10;;;24.70;33.90;;;;;;5042586;28;20517;-71
2023/06/16 10:57:14;;;;;;;7.17;5.40;;;24.70;33.20;;;;;;5024881;28;20425;-72
2023/06/16 11:00:11;;;;;;;12.00;5.53;;;24.90;32.90;;;;;;5045583;28;20912;-71
2023/06/16 11:02:47;;;;;;;10.20;5.57;;;24.70;32.80;;;;;;5044614;28;20540;-73
2023/06/16 11:05:14;;;;;;;16.00;5.90;;;24.70;33.50;;;;;;5036586;28;20544;-73
2023/06/16 11:07:46;;;;;;;7.80;5.20;;;24.90;32.50;;;;;;5047460;28;20428;-72
2023/06/16 11:10:18;;;;;;;5.47;4.40;;;25.00;32.10;;;;;;5037406;28;20469;-73
2023/06/16 11:12:45;;;;;;;8.23;5.43;;;24.90;31.30;;;;;;5042946;28;20460;-72
2023/06/16 11:15:10;;;;;;;18.50;6.00;;;24.60;32.50;;;;;;5049558;28;20413;-72
2023/06/16 11:17:36;;;;;;;7.87;5.10;;;25.00;32.70;;;;;;5046933;28;20434;-72
2023/06/16 11:20:06;;;;;;;7.87;5.23;;;25.00;31.90;;;;;;5044675;28;20277;-74
2023/06/16 11:22:33;;;;;;;8.27;5.70;;;25.00;31.60;;;;;;5041385;28;20701;-73
2023/06/16 11:24:59;;;;;;;8.47;5.27;;;24.60;33.60;;;;;;5052159;28;20421;-72
2023/06/16 11:27:25;;;;;;;12.40;6.10;;;24.70;34.00;;;;;;5045555;28;20916;-74
2023/06/16 11:29:54;;;;;;;10.07;5.97;;;24.60;34.40;;;;;;5049716;28;20465;-74
2023/06/16 11:32:40;;;;;;;10.90;6.03;;;24.30;35.30;;;;;;5047810;28;20503;-73
2023/06/16 11:35:06;;;;;;;8.27;5.97;;;24.90;34.10;;;;;;5050385;28;20495;-75
2023/06/16 11:38:07;;;;;;;8.83;5.40;;;25.00;33.50;;;;;;5039600;28;21012;-73
2023/06/16 11:40:33;;;;;;;10.63;6.23;;;24.60;33.60;;;;;;4973229;28;20195;-71
2023/06/16 11:43:01;;;;;;;10.43;5.43;;;24.60;34.10;;;;;;4972307;28;20836;-71
2023/06/16 11:45:29;;;;;;;14.00;5.60;;;24.70;33.70;;;;;;4973336;28;20212;-72
2023/06/16 11:47:56;;;;;;;8.43;5.10;;;24.60;34.50;;;;;;4973549;28;20805;-74
2023/06/16 11:50:22;;;;;;;11.90;6.00;;;24.80;34.10;;;;;;4957699;28;20471;-72
2023/06/16 11:52:49;;;;;;;10.60;5.93;;;24.60;34.50;;;;;;4971709;28;20994;-73
2023/06/16 11:55:15;;;;;;;11.03;6.00;;;24.70;34.40;;;;;;4972986;28;20434;-72
2023/06/16 11:57:40;;;;;;;7.07;5.00;;;24.70;33.90;;;;;;4973333;28;20566;-71
2023/06/16 12:00:08;;;;;;;9.03;5.60;;;24.70;33.90;;;;;;4973205;28;20276;-73
2023/06/16 12:02:35;;;;;;;10.00;5.60;;;24.80;33.50;;;;;;4972179;28;20642;-74
2023/06/16 12:05:03;;;;;;;11.30;5.80;;;25.30;32.90;;;;;;4973587;28;20431;-74
2023/06/16 12:07:30;;;;;;;10.50;6.17;;;24.90;33.50;;;;;;4971280;28;20493;-72
2023/06/16 12:09:56;;;;;;;11.67;5.37;;;24.90;33.10;;;;;;4972922;28;20562;-73
2023/06/16 12:12:25;;;;;;;6.97;5.43;;;25.00;33.60;;;;;;4970821;28;20734;-74
2023/06/16 12:14:51;;;;;;;9.33;6.57;;;24.80;33.70;;;;;;5017291;28;20486;-73
2023/06/16 12:17:17;;;;;;;11.17;6.00;;;24.80;34.50;;;;;;5040174;28;20425;-71
2023/06/16 12:19:44;;;;;;;12.40;6.47;;;24.80;33.20;;;;;;5055908;28;20461;-71
2023/06/16 12:22:10;;;;;;;8.07;5.50;;;24.70;33.30;;;;;;5052260;28;20649;-74
2023/06/16 12:24:39;;;;;;;8.50;6.43;;;24.80;33.60;;;;;;5046585;28;20509;-73
2023/06/16 12:27:05;;;;;;;11.33;5.50;;;25.00;32.00;;;;;;5034703;28;20670;-71
2023/06/16 12:29:31;;;;;;;9.60;6.60;;;25.10;32.70;;;;;;5053281;28;20460;-72
2023/06/16 12:32:00;;;;;;;9.80;6.40;;;25.70;32.90;;;;;;5049741;28;20202;-72
2023/06/16 12:34:25;;;;;;;11.00;5.83;;;25.70;30.90;;;;;;5052882;28;20454;-71
2023/06/16 12:36:58;;;;;;;9.57;6.10;;;25.90;31.20;;;;;;5050219;28;20432;-73
2023/06/16 12:39:24;;;;;;;8.53;6.07;;;25.30;33.20;;;;;;5051029;28;20547;-71
2023/06/16 12:42:03;;;;;;;12.17;6.00;;;25.00;33.70;;;;;;5047089;28;20518;-74
2023/06/16 12:44:43;;;;;;;10.43;6.03;;;25.20;32.90;;;;;;5053535;28;20445;-72